• Join FlightAware (Why Join?)
  • Login
  • US Flag 
06:13PM EDT


 

Airport Tracker/Info


-or-


 

Live Flight TrackerFlight Track Log ✈ SWA267 ✈ 12-Apr-2013 ✈ KSLC - KMDW

Flight Track Log - Related Links

Times and Time Zones

All times are in EDT time to prevent confusion due to time zone crossing. See the SWA267 flight status page for this flight to view local times or setup timezone preferences in your user account.

Time Position Orientation Groundspeed Altitude Reporting Facility
EDT Latitude Longitude Course Direction KTS MPH feet Rate Location/Type
06:24PM 40.8369 -111.9692 353° North 186 214 5,900  Level Salt Lake Center
06:24PM 40.8672 -111.9717 356° North 208 239 6,600 2,040 Climbing Salt Lake Center
06:25PM 40.9347 -111.9811 354° North 242 278 9,000 2,100 Climbing Salt Lake Center
06:26PM 40.9839 -111.9133 46° Northeast 313 360 11,000 2,160 Climbing Salt Lake Center
06:27PM 40.9969 -111.7922 82° East 352 405 13,500 3,060 Climbing Salt Lake Center
06:28PM 41.0186 -111.6325 80° East 376 433 17,300 3,060 Climbing Salt Lake Center
06:29PM 41.0364 -111.4917 80° East 390 449 19,900 2,460 Climbing Salt Lake Center
06:30PM 41.0528 -111.3444 82° East 403 464 22,500 2,280 Climbing Salt Lake Center
06:31PM 41.0772 -111.1944 78° East 417 480 24,600 1,920 Climbing Salt Lake Center
06:32PM 41.1158 -111.0433 71° East 430 495 26,500 1,800 Climbing Salt Lake Center
06:33PM 41.1564 -110.8719 73° East 445 512 28,400 1,740 Climbing Salt Lake Center
06:34PM 41.1936 -110.7175 72° East 457 526 30,100 1,800 Climbing Salt Lake Center
06:35PM 41.2381 -110.5350 72° East 465 535 32,100 1,800 Climbing Salt Lake Center
06:36PM 41.2744 -110.3814 72° East 459 528 33,900 1,560 Climbing Salt Lake Center
06:37PM 41.3178 -110.2017 72° East 456 525 35,400 1,320 Climbing Salt Lake Center
06:38PM 41.3531 -110.0478 73° East 456 525 36,700 1,200 Climbing Salt Lake Center
06:40PM 41.3956 -109.8686 72° East 455 524 37,900 900 Climbing Salt Lake Center
06:41PM 41.4311 -109.7147 73° East 454 522 38,600 480 Climbing Salt Lake Center
06:42PM 41.4678 -109.5569 73° East 461 531 39,000 180 Climbing Salt Lake Center
06:43PM 41.5100 -109.3719 73° East 464 534 39,000  Level Salt Lake Center
06:44PM 41.5467 -109.2111 73° East 466 536 39,000  Level Salt Lake Center
06:45PM 41.5825 -109.0478 74° East 468 539 39,000  Level Salt Lake Center
06:46PM 41.6022 -108.8508 82° East 477 549 39,000  Level Salt Lake Center
06:47PM 41.6167 -108.6811 83° East 480 552 39,000  Level Salt Lake Center
06:48PM 41.6306 -108.4817 85° East 481 554 39,000  Level Salt Lake Center
06:49PM 41.6436 -108.3111 84° East 482 555 39,000  Level Salt Lake Center
06:50PM 41.6553 -108.1403 85° East 482 555 39,000  Level Salt Lake Center
06:51PM 41.6667 -107.9972 84° East 480 552 39,000  Level Denver Center
06:52PM 41.6792 -107.8003 85° East 476 548 39,000  Level Denver Center
06:53PM 41.6908 -107.6311 85° East 476 548 39,000  Level Denver Center
06:54PM 41.7056 -107.4061 85° East 476 548 39,000  Level Denver Center
06:55PM 41.7183 -107.2111 85° East 472 543 39,000  Level Denver Center
06:56PM 41.7294 -107.0442 85° East 472 543 39,000  Level Denver Center
06:57PM 41.7406 -106.8739 85° East 478 550 39,000  Level Denver Center
06:58PM 41.7522 -106.6747 85° East 480 552 39,000  Level Denver Center
06:59PM 41.7619 -106.4933 86° East 479 551 39,000  Level Denver Center
07:00PM 41.7722 -106.3219 85° East 482 555 39,000  Level Denver Center
07:01PM 41.7831 -106.1247 86° East 478 550 39,000  Level Denver Center
07:02PM 41.7919 -105.9528 86° East 482 555 39,000  Level Denver Center
07:03PM 41.8017 -105.7539 86° East 481 554 39,000  Level Denver Center
07:04PM 41.8094 -105.5819 86° East 484 557 39,000  Level Denver Center
07:05PM 41.8194 -105.3850 86° East 479 551 39,000  Level Denver Center
07:06PM 41.8272 -105.2158 86° East 478 550 39,000  Level Denver Center
07:07PM 41.8364 -105.0200 86° East 475 547 39,000  Level Denver Center
07:08PM 41.8433 -104.8503 87° East 478 550 39,000  Level Denver Center
07:10PM 41.8528 -104.6253 87° East 477 549 39,000  Level Denver Center
07:11PM 41.8594 -104.4525 87° East 485 558 39,000  Level Denver Center
07:12PM 41.8672 -104.2517 87° East 485 558 39,000  Level Denver Center
07:13PM 41.8744 -104.0794 87° East 485 558 39,000  Level Denver Center
07:14PM 41.8808 -103.8767 88° East 491 565 39,000  Level Denver Center
07:15PM 41.8872 -103.6978 87° East 501 577 39,000  Level Denver Center
07:16PM 41.8931 -103.4897 88° East 502 578 39,000  Level Denver Center
07:17PM 41.8786 -103.3100 96° East 510 587 39,000  Level Denver Center
07:18PM 41.8628 -103.0986 96° East 511 588 39,000  Level Denver Center
07:19PM 41.8478 -102.9178 96° East 512 589 39,000  Level Denver Center
07:20PM 41.8297 -102.7050 96° East 515 593 39,000  Level Denver Center
07:21PM 41.8147 -102.5194 96° East 523 602 39,000  Level Denver Center
07:22PM 41.7944 -102.3033 97° East 524 603 39,000  Level Denver Center
07:23PM 41.7797 -102.1303 96° East 513 590 39,000  Level Denver Center
07:24PM 41.7600 -101.9194 97° East 511 588 39,000  Level Denver Center
07:25PM 41.7433 -101.7383 97° East 512 589 39,000  Level Denver Center
07:26PM 41.7236 -101.5247 97° East 516 594 39,000  Level Denver Center
07:27PM 41.7067 -101.3411 97° East 517 595 39,000  Level Denver Center
07:28PM 41.6847 -101.1247 98° East 522 601 39,000  Level Denver Center
07:29PM 41.6658 -100.9400 98° East 522 601 39,000  Level Denver Center
07:30PM 41.6444 -100.7219 97° East 527 606 39,000  Level Denver Center
07:31PM 41.6247 -100.5383 98° East 522 601 39,000  Level Denver Center
07:32PM 41.6053 -100.3558 98° East 518 596 39,000  Level Denver Center
07:33PM 41.5825 -100.1442 98° East 515 593 39,000  Level Denver Center
07:34PM 41.5631 -99.9672 98° East 508 585 39,000  Level Denver Center
07:35PM 41.5417 -99.7661 98° East 494 568 39,000  Level Denver Center
07:36PM 41.5228 -99.5981 98° East 492 566 39,000  Level Denver Center
07:37PM 41.5028 -99.4208 99° East 485 558 39,000  Level Denver Center
07:39PM 41.4786 -99.2058 98° East 485 558 39,000  Level Denver Center
07:40PM 41.4775 -99.0219 90° East 491 565 39,000  Level Denver Center
07:41PM 41.4789 -98.8372 89° East 493 567 39,000  Level Denver Center
07:42PM 41.4803 -98.6514 89° East 495 570 39,000  Level Denver Center
07:43PM 41.4803 -98.4656 90° East 495 570 39,000  Level Denver Center
07:44PM 41.4808 -98.2436 90° East 496 571 39,000  Level Minneapolis Center
07:45PM 41.4806 -98.0633 90° East 493 567 39,000  Level Minneapolis Center
07:46PM 41.4811 -97.8828 90° East 489 563 39,000  Level Minneapolis Center
07:47PM 41.4794 -97.7000 91° East 492 566 39,000  Level Minneapolis Center
07:48PM 41.4800 -97.4786 90° East 497 572 39,000  Level Minneapolis Center
07:49PM 41.4775 -97.2961 91° East 494 568 39,000  Level Minneapolis Center
07:50PM 41.4761 -97.1122 91° East 496 571 39,000  Level Minneapolis Center
07:51PM 41.4744 -96.9264 91° East 499 574 39,000  Level Minneapolis Center
07:52PM 41.4722 -96.7408 92° East 500 575 39,000  Level Minneapolis Center
07:53PM 41.4689 -96.6884 92° East  Level FlightAware Approximate
07:53PM 41.4708 -96.5547 91° East 502 578 39,000  Level Minneapolis Center
07:54PM 41.4675 -96.3661 91° East 505 581 39,000  Level Minneapolis Center
07:55PM 41.4586 -96.1714 93° East 513 590 39,000  Level Minneapolis Center
07:56PM 41.4547 -95.9442 91° East 512 589 39,000  Level Minneapolis Center
07:57PM 41.4553 -95.7553 90° East 512 589 39,000  Level Minneapolis Center
07:58PM 41.4503 -95.5561 92° East 509 586 39,000  Level Minneapolis Center
07:59PM 41.4456 -95.3658 92° East 512 589 39,000  Level Minneapolis Center
08:00PM 41.4428 -95.1747 91° East 515 593 39,000  Level Minneapolis Center
08:01PM 41.4364 -94.9842 92° East 516 594 39,000  Level Minneapolis Center
08:02PM 41.4311 -94.7914 92° East 518 596 39,000  Level Minneapolis Center
08:03PM 41.4261 -94.5981 92° East 521 600 39,000  Level Minneapolis Center
08:04PM 41.4189 -94.4050 93° East 521 600 39,000  Level Minneapolis Center
08:05PM 41.4147 -94.2142 92° East 516 594 39,000  Level Minneapolis Center
08:07PM 41.4022 -93.9850 94° East 517 595 39,000  Level Minneapolis Center
08:08PM 41.3958 -93.7981 93° East 514 592 39,000  Level Minneapolis Center
08:09PM 41.3886 -93.6108 93° East 511 588 39,000  Level Minneapolis Center
08:10PM 41.3819 -93.4239 93° East 509 586 39,000  Level Minneapolis Center
08:11PM 41.3747 -93.2394 93° East 504 580 39,000  Level Minneapolis Center
08:12PM 41.3667 -93.0539 93° East 504 580 39,000  Level Minneapolis Center
08:13PM 41.3578 -92.8683 94° East 504 580 39,000 -300 Level Minneapolis Center
08:14PM 41.3481 -92.6467 93° East 503 579 38,500 -720 Descending Minneapolis Center
08:15PM 41.3392 -92.4550 93° East 512 589 37,500 -960 Descending Chicago Center
08:16PM 41.3283 -92.2508 94° East 517 595 36,500 -1,020 Descending Chicago Center
08:17PM 41.3183 -92.0656 94° East 510 587 35,500 -1,020 Descending Chicago Center
08:18PM 41.3081 -91.8792 94° East 511 588 34,500 -1,080 Descending Chicago Center
08:19PM 41.2964 -91.6611 94° East 498 573 33,300 -1,080 Descending Chicago Center
08:20PM 41.2864 -91.4842 94° East 487 560 32,300 -1,020 Descending Chicago Center
08:21PM 41.2761 -91.3089 94° East 482 555 31,200 -1,500 Descending Chicago Center
08:22PM 41.2664 -91.1406 94° East 483 556 29,300 -1,980 Descending Chicago Center
08:23PM 41.2561 -90.9694 95° East 471 542 27,200 -2,220 Descending Chicago Center
08:24PM 41.2439 -90.7669 95° East 461 531 24,800 -1,680 Descending Chicago Center
08:25PM 41.2325 -90.6069 95° East 444 511 23,800 -900 Descending Chicago Center
08:26PM 41.2206 -90.4489 96° East 433 498 23,000 -840 Descending Chicago Center
08:27PM 41.2261 -90.2922 87° East 426 490 22,100 -900 Descending Chicago Center
08:28PM 41.2556 -90.1278 77° East 451 519 21,200 -960 Descending Chicago Center
08:29PM 41.2839 -89.9592 77° East 462 532 20,200 -1,020 Descending Chicago Center
08:30PM 41.3117 -89.7928 77° East 458 527 19,200 -1,380 Descending Chicago Center
08:31PM 41.3439 -89.6006 77° East 444 511 17,400 -1,560 Descending Chicago Center
08:32PM 41.3694 -89.4439 78° East 433 498 16,000 -1,620 Descending Chicago Center
08:33PM 41.3944 -89.2919 78° East 418 481 14,100 -2,040 Descending Chicago Center
08:34PM 41.4181 -89.1417 78° East 398 458 11,800 -1,980 Descending Chicago Center
08:35PM 41.4403 -89.0000 78° East 394 453 10,100 -1,020 Descending Chicago Center
08:37PM 41.4617 -88.8656 78° East 376 433 9,700 -720 Descending Chicago Center
08:38PM 41.4792 -88.7503 79° East 323 372 8,700 -1,200 Descending Chicago Center
08:39PM 41.4981 -88.6383 77° East 312 359 7,300 -840 Descending Chicago Center
08:40PM 41.5167 -88.5064 79° East 304 350 7,000 -600 Descending Chicago Center
08:41PM 41.5311 -88.3994 80° East 297 342 6,100 -1,140 Descending Chicago Center
08:42PM 41.5444 -88.2942 80° East 292 336 4,700 -1,020 Descending Chicago Center
08:43PM 41.5575 -88.1908 80° East 285 328 4,000 -360 Descending Chicago Center
08:44PM 41.5706 -88.0878 80° East 281 323 4,000  Level Chicago Center
08:45PM 41.5803 -87.9833 83° East 281 323 4,000 -420 Level Chicago Center
08:46PM 41.5794 -87.8786 91° East 281 323 3,200 -540 Descending Chicago Center
08:47PM 41.5806 -87.7825 89° East 271 312 3,000 -120 Descending Chicago Center
08:48PM 41.5831 -87.6756 88° East 253 291 3,000  Level Chicago Center
08:49PM 41.5822 -87.5847 91° East 247 284 3,000  Level Chicago Center
08:50PM 41.6283 -87.5506 29° Northeast 230 265 3,000  Level Chicago Center
08:51PM 41.6700 -87.5878 326° Northwest 201 231 3,000 -120 Level Chicago Center
08:52PM 41.7000 -87.6500 303° West 146 168 2,800 -420 Descending Chicago TRACON
08:53PM 41.7333 -87.6667 340° North 121 139 2,200 -780 Descending Chicago TRACON
08:54PM 41.7500 -87.7000 304° West 127 146 1,400 -840 Descending Chicago TRACON